Time;durP1;ratioP1;P1;durP2;ratioP2;P2;SDS_P1;SDS_P2;PMS_P1;PMS_P2;Temp;Humidity;BMP_temperature;BMP_pressure;BME280_temperature;BME280_humidity;BME280_pressure;Samples;Min_cycle;Max_cycle;Signal;HPM_P1;HPM_P2
2022/01/24 00:01:07;;;;;;;6.50;4.55;;;5.90;99.90;;;;;;5035575;28;20065;-68
2022/01/24 00:03:35;;;;;;;7.63;5.28;;;5.80;99.90;;;;;;5035610;28;20103;-68
2022/01/24 00:06:03;;;;;;;6.65;5.35;;;5.80;99.90;;;;;;5036089;28;20095;-68
2022/01/24 00:08:31;;;;;;;7.57;5.28;;;5.80;99.90;;;;;;5035579;28;20088;-68
2022/01/24 00:11:05;;;;;;;7.70;6.10;;;5.80;99.90;;;;;;5053142;28;20140;-68
2022/01/24 00:16:23;;;;;;;7.72;4.95;;;5.80;99.90;;;;;;5075711;28;20064;-69
2022/01/24 00:27:05;;;;;;;9.05;5.50;;;5.70;99.90;;;;;;5054557;28;20097;-69
2022/01/24 00:29:32;;;;;;;9.32;5.43;;;5.70;99.90;;;;;;5055110;28;20103;-69
2022/01/24 00:31:58;;;;;;;8.05;5.20;;;5.70;99.90;;;;;;5057909;28;20049;-68
2022/01/24 00:34:27;;;;;;;8.07;5.13;;;5.70;99.90;;;;;;5054069;28;20056;-68
2022/01/24 00:36:54;;;;;;;6.43;4.50;;;5.70;99.90;;;;;;5056126;28;20566;-68
2022/01/24 00:39:22;;;;;;;7.40;5.28;;;5.70;99.90;;;;;;5054015;28;20049;-68
2022/01/24 00:42:00;;;;;;;7.13;4.68;;;5.70;99.90;;;;;;5071652;28;20049;-68
2022/01/24 00:44:47;;;;;;;6.80;5.13;;;5.70;99.90;;;;;;5074910;28;20048;-68
2022/01/24 00:47:20;;;;;;;7.43;4.53;;;5.60;99.90;;;;;;5074399;28;20476;-68
2022/01/24 00:49:56;;;;;;;8.05;4.20;;;5.60;99.90;;;;;;5091350;28;20060;-69
2022/01/24 00:55:08;;;;;;;7.65;4.72;;;5.60;99.90;;;;;;5074158;28;20075;-68
2022/01/24 00:57:35;;;;;;;7.10;4.47;;;5.60;99.90;;;;;;5074750;28;20052;-68
2022/01/24 01:00:02;;;;;;;6.55;4.35;;;5.60;99.90;;;;;;5091218;28;20053;-68
2022/01/24 01:02:29;;;;;;;12.52;4.68;;;5.60;99.90;;;;;;5074055;28;20437;-68
2022/01/24 01:05:08;;;;;;;7.28;5.13;;;5.60;99.90;;;;;;5074396;28;20109;-68
2022/01/24 01:07:40;;;;;;;6.50;4.55;;;5.50;99.90;;;;;;5090693;28;20577;-69
2022/01/24 01:18:21;;;;;;;7.10;4.47;;;5.50;99.90;;;;;;5054305;28;20111;-69
2022/01/24 01:23:38;;;;;;;6.18;4.40;;;5.40;99.90;;;;;;5053291;28;20110;-69
2022/01/24 01:26:10;;;;;;;6.60;4.50;;;5.40;99.90;;;;;;5054474;28;20053;-68
2022/01/24 01:28:40;;;;;;;6.32;4.55;;;5.40;99.90;;;;;;5053441;28;20475;-69
2022/01/24 01:31:13;;;;;;;7.07;4.90;;;5.40;99.90;;;;;;5065935;28;20055;-69
2022/01/24 01:33:51;;;;;;;5.80;4.15;;;5.40;99.90;;;;;;5079954;28;20076;-68
2022/01/24 01:36:27;;;;;;;7.85;4.78;;;5.40;99.90;;;;;;5053416;28;20052;-68
2022/01/24 01:39:29;;;;;;;6.35;4.57;;;5.40;99.90;;;;;;5053968;28;20390;-68
2022/01/24 01:53:05;;;;;;;5.93;4.13;;;5.30;99.90;;;;;;5074644;28;20144;-68
2022/01/24 01:55:38;;;;;;;6.93;4.57;;;5.30;99.90;;;;;;5059270;28;20048;-68
2022/01/24 01:58:06;;;;;;;6.13;4.25;;;5.30;99.90;;;;;;5052858;28;20132;-68
2022/01/24 02:00:35;;;;;;;6.40;4.05;;;5.30;99.90;;;;;;5072782;28;20455;-68
2022/01/24 02:03:02;;;;;;;6.97;4.18;;;5.30;99.90;;;;;;5073305;28;20048;-68
2022/01/24 02:05:29;;;;;;;6.85;4.53;;;5.30;99.90;;;;;;5089541;28;20098;-68
2022/01/24 02:07:57;;;;;;;5.75;4.28;;;5.20;99.90;;;;;;5074289;28;20097;-68
2022/01/24 02:10:25;;;;;;;6.22;4.35;;;5.20;99.90;;;;;;5089839;28;20552;-68
2022/01/24 02:12:54;;;;;;;6.63;4.45;;;5.20;99.90;;;;;;5089236;28;20098;-69
2022/01/24 02:15:27;;;;;;;8.65;4.30;;;5.20;99.90;;;;;;5073195;28;20118;-69
2022/01/24 02:18:05;;;;;;;5.38;3.75;;;5.20;99.90;;;;;;5089601;28;20460;-69
2022/01/24 02:20:43;;;;;;;6.25;4.30;;;5.20;99.90;;;;;;5089962;28;20052;-69
2022/01/24 02:23:35;;;;;;;6.80;4.32;;;5.20;99.90;;;;;;5071869;28;20059;-69
2022/01/24 02:26:04;;;;;;;7.55;4.57;;;5.20;99.90;;;;;;5072155;28;20543;-68
2022/01/24 02:28:43;;;;;;;6.50;4.28;;;5.10;99.90;;;;;;5089892;28;20409;-68
2022/01/24 02:31:24;;;;;;;5.60;3.85;;;5.10;99.90;;;;;;5089543;28;20053;-69
2022/01/24 02:33:51;;;;;;;5.88;4.40;;;5.10;99.90;;;;;;5089013;28;20491;-68
2022/01/24 02:36:20;;;;;;;5.32;4.00;;;5.10;99.90;;;;;;5072822;28;20044;-69
2022/01/24 02:39:01;;;;;;;9.45;4.65;;;5.10;99.90;;;;;;5088926;28;20141;-68
2022/01/24 02:49:40;;;;;;;7.75;4.00;;;5.10;99.90;;;;;;5072595;28;20041;-68
2022/01/24 02:52:09;;;;;;;8.77;4.68;;;5.00;99.90;;;;;;5089019;28;20500;-68
2022/01/24 02:54:38;;;;;;;7.10;4.57;;;5.10;99.90;;;;;;5071953;28;20102;-68
2022/01/24 02:57:07;;;;;;;6.03;4.50;;;5.10;99.90;;;;;;5072914;28;20052;-68
2022/01/24 02:59:35;;;;;;;6.28;4.38;;;5.00;99.90;;;;;;5072240;28;20044;-68
2022/01/24 03:02:03;;;;;;;8.30;4.93;;;5.10;99.90;;;;;;5088483;28;20496;-68
2022/01/24 03:04:30;;;;;;;6.70;4.03;;;5.00;99.90;;;;;;5072553;28;20055;-68
2022/01/24 03:06:57;;;;;;;5.97;4.30;;;5.00;99.90;;;;;;5088701;28;20492;-68
2022/01/24 03:09:24;;;;;;;6.90;4.60;;;5.10;99.90;;;;;;5069237;28;20052;-68
2022/01/24 03:12:01;;;;;;;6.88;4.47;;;5.00;99.90;;;;;;5052199;28;20045;-68
2022/01/24 03:14:30;;;;;;;5.82;4.50;;;5.00;99.90;;;;;;5052560;28;20059;-68
2022/01/24 03:16:57;;;;;;;7.15;4.55;;;5.10;99.90;;;;;;5052002;28;20056;-67
2022/01/24 03:19:24;;;;;;;7.35;4.68;;;5.10;99.90;;;;;;5051735;28;20045;-68
2022/01/24 03:21:52;;;;;;;6.60;4.57;;;5.10;99.90;;;;;;5051384;28;20179;-68
2022/01/24 03:24:19;;;;;;;8.05;5.15;;;5.10;99.90;;;;;;5052980;28;20049;-68
2022/01/24 03:26:47;;;;;;;7.10;4.72;;;5.10;99.90;;;;;;5052370;28;20057;-69
2022/01/24 03:29:15;;;;;;;6.22;4.65;;;5.00;99.90;;;;;;5051413;28;20052;-68
2022/01/24 03:31:45;;;;;;;7.05;5.40;;;5.00;99.90;;;;;;5051899;28;20049;-69
2022/01/24 03:34:12;;;;;;;8.48;5.03;;;5.00;99.90;;;;;;5050906;28;20146;-68
2022/01/24 03:36:39;;;;;;;6.97;5.30;;;5.00;99.90;;;;;;5050983;28;20049;-69
2022/01/24 03:39:06;;;;;;;7.20;4.70;;;5.00;99.90;;;;;;5052953;28;20107;-69
2022/01/24 03:41:33;;;;;;;7.32;4.90;;;5.00;99.90;;;;;;5087913;28;20048;-69
2022/01/24 03:44:03;;;;;;;7.63;5.35;;;5.00;99.90;;;;;;5087817;28;20443;-69
2022/01/24 03:46:46;;;;;;;6.50;4.93;;;5.00;99.90;;;;;;5088667;28;20063;-69
2022/01/24 03:49:45;;;;;;;6.82;4.93;;;5.00;99.90;;;;;;5087968;28;20048;-69
2022/01/24 03:52:07;;;;;;;6.55;5.07;;;5.00;99.90;;;;;;5071095;28;20049;-69
2022/01/24 03:54:34;;;;;;;7.28;4.95;;;5.00;99.90;;;;;;5072105;28;20442;-69
2022/01/24 03:57:01;;;;;;;8.82;5.28;;;5.00;99.90;;;;;;5071197;28;20447;-69
2022/01/24 03:59:30;;;;;;;8.80;4.70;;;5.00;99.90;;;;;;5088603;28;20102;-69
2022/01/24 04:01:59;;;;;;;7.13;5.00;;;5.00;99.90;;;;;;5071694;28;20052;-69
2022/01/24 04:04:26;;;;;;;7.82;5.35;;;5.00;99.90;;;;;;5087645;28;20052;-68
2022/01/24 04:06:53;;;;;;;7.20;5.40;;;5.00;99.90;;;;;;5088411;28;20107;-68
2022/01/24 04:09:20;;;;;;;10.30;6.28;;;5.00;99.90;;;;;;5070137;28;20094;-68
2022/01/24 04:11:51;;;;;;;8.68;5.97;;;5.00;99.90;;;;;;5070668;28;20052;-68
2022/01/24 04:14:30;;;;;;;8.38;5.53;;;5.00;99.90;;;;;;5071247;28;20102;-68
2022/01/24 04:17:09;;;;;;;8.00;5.50;;;5.00;99.90;;;;;;5088305;28;20060;-68
2022/01/24 04:22:25;;;;;;;8.50;5.50;;;5.00;99.90;;;;;;5071472;28;20051;-68
2022/01/24 04:24:58;;;;;;;9.48;5.88;;;5.00;99.90;;;;;;5087676;28;20153;-68
2022/01/24 04:27:26;;;;;;;8.68;5.72;;;5.00;99.90;;;;;;5088308;28;20058;-68
2022/01/24 04:29:53;;;;;;;10.25;6.25;;;5.00;99.90;;;;;;5088371;28;20101;-68
2022/01/24 04:32:21;;;;;;;10.20;7.03;;;5.00;99.90;;;;;;5070795;28;20057;-68
2022/01/24 04:34:48;;;;;;;9.40;6.28;;;5.00;99.90;;;;;;5088190;28;20408;-68
2022/01/24 04:37:15;;;;;;;8.52;6.25;;;5.00;99.90;;;;;;5088074;28;20098;-67
2022/01/24 04:39:43;;;;;;;10.75;7.05;;;5.00;99.90;;;;;;5063261;28;20053;-69
2022/01/24 04:42:14;;;;;;;13.15;7.53;;;5.00;99.90;;;;;;5050982;28;20057;-69
2022/01/24 04:45:07;;;;;;;10.05;7.10;;;5.00;99.90;;;;;;5051347;28;20106;-68
2022/01/24 04:50:18;;;;;;;9.40;6.50;;;5.00;99.90;;;;;;5053490;28;20080;-69
2022/01/24 04:50:41;;;;;;;9.45;6.75;;;5.00;99.90;;;;;;5054467;28;20053;-68
2022/01/24 04:53:14;;;;;;;10.88;6.63;;;5.00;99.90;;;;;;5054315;28;20060;-68
2022/01/24 04:55:41;;;;;;;12.23;7.97;;;5.00;99.90;;;;;;5054502;28;20102;-68
2022/01/24 04:58:07;;;;;;;11.20;7.47;;;5.00;99.90;;;;;;5054813;28;20052;-68
2022/01/24 05:00:34;;;;;;;13.75;7.82;;;5.00;99.90;;;;;;5054962;28;20049;-68
2022/01/24 05:03:02;;;;;;;9.80;7.10;;;5.00;99.90;;;;;;5054530;28;20048;-68
2022/01/24 05:05:30;;;;;;;12.50;8.07;;;5.00;99.90;;;;;;5055528;28;20045;-68
2022/01/24 05:07:59;;;;;;;11.45;7.38;;;5.00;99.90;;;;;;5068277;28;20090;-68
2022/01/24 05:10:33;;;;;;;11.77;7.38;;;5.00;99.90;;;;;;5074878;28;20457;-67
2022/01/24 05:21:40;;;;;;;11.23;7.90;;;5.00;99.90;;;;;;5073800;28;20048;-67
2022/01/24 05:24:06;;;;;;;11.88;7.90;;;5.00;99.90;;;;;;5074038;28;20143;-69
2022/01/24 05:26:32;;;;;;;13.88;8.02;;;5.00;99.90;;;;;;5074055;28;20547;-69
2022/01/24 05:28:59;;;;;;;12.52;8.00;;;5.00;99.90;;;;;;5090512;28;20091;-69
2022/01/24 05:31:26;;;;;;;13.85;8.40;;;4.90;99.90;;;;;;5074231;28;20090;-68
2022/01/24 05:33:54;;;;;;;14.57;9.05;;;5.00;99.90;;;;;;5074660;28;20045;-67
2022/01/24 05:36:21;;;;;;;15.32;9.25;;;5.00;99.90;;;;;;5089573;28;20048;-68
2022/01/24 05:38:48;;;;;;;16.17;9.10;;;4.90;99.90;;;;;;5051692;28;20049;-68
2022/01/24 05:41:15;;;;;;;11.35;8.13;;;4.90;99.90;;;;;;5053738;28;20191;-68
2022/01/24 05:43:43;;;;;;;13.52;8.68;;;4.90;99.90;;;;;;5053306;28;20397;-68
2022/01/24 05:46:09;;;;;;;12.95;8.85;;;4.90;99.90;;;;;;5053483;28;20098;-69
2022/01/24 05:48:36;;;;;;;12.43;8.00;;;4.90;99.90;;;;;;5054142;28;20091;-68
2022/01/24 05:51:04;;;;;;;13.98;8.57;;;4.90;99.90;;;;;;5053563;28;20110;-68
2022/01/24 05:53:31;;;;;;;12.02;8.32;;;4.90;99.90;;;;;;5053589;28;20099;-69
2022/01/24 05:55:59;;;;;;;15.82;9.32;;;4.90;99.90;;;;;;5053179;28;20053;-69
2022/01/24 05:58:26;;;;;;;15.30;9.45;;;4.90;99.90;;;;;;5071461;28;20048;-69
2022/01/24 06:00:52;;;;;;;14.38;9.38;;;5.00;99.90;;;;;;5073369;28;20048;-69
2022/01/24 06:03:20;;;;;;;13.63;9.40;;;4.90;99.90;;;;;;5073740;28;20044;-69
2022/01/24 06:05:47;;;;;;;10.38;7.43;;;4.90;99.90;;;;;;5073744;28;20481;-66
2022/01/24 06:08:15;;;;;;;14.00;8.68;;;5.10;99.90;;;;;;5065866;28;20118;-67
2022/01/24 06:10:44;;;;;;;14.70;9.45;;;5.10;99.90;;;;;;5045582;28;20037;-67
2022/01/24 06:13:11;;;;;;;13.27;8.98;;;5.10;99.90;;;;;;5052069;28;20424;-68
2022/01/24 06:15:38;;;;;;;15.00;9.40;;;5.00;99.90;;;;;;5052264;28;20417;-68
2022/01/24 06:18:05;;;;;;;13.48;8.57;;;5.00;99.90;;;;;;5051730;28;20049;-68
2022/01/24 06:20:32;;;;;;;12.50;8.52;;;5.00;99.90;;;;;;5051070;28;20095;-68
2022/01/24 06:22:58;;;;;;;11.90;8.32;;;5.00;99.90;;;;;;5053114;28;20114;-68
2022/01/24 06:25:28;;;;;;;17.83;9.73;;;5.00;99.90;;;;;;5051565;28;20118;-68
2022/01/24 06:27:55;;;;;;;12.60;8.85;;;5.00;99.90;;;;;;5053092;28;20098;-67
2022/01/24 06:30:22;;;;;;;14.57;9.02;;;5.00;99.90;;;;;;5052013;28;20071;-67
2022/01/24 06:32:49;;;;;;;14.18;9.07;;;5.00;99.90;;;;;;5052274;28;20092;-67
2022/01/24 06:35:16;;;;;;;14.13;9.02;;;5.00;99.90;;;;;;5051695;28;20057;-68
2022/01/24 06:37:43;;;;;;;13.52;9.50;;;5.00;99.90;;;;;;5051149;28;20094;-68
2022/01/24 06:40:11;;;;;;;13.85;8.52;;;5.00;99.90;;;;;;5051354;28;20052;-68
2022/01/24 06:42:40;;;;;;;12.68;8.50;;;5.00;99.90;;;;;;5052597;28;20447;-68
2022/01/24 06:45:08;;;;;;;13.40;8.88;;;5.00;99.90;;;;;;5052293;28;20099;-68
2022/01/24 06:47:36;;;;;;;14.57;8.38;;;5.00;99.90;;;;;;5051460;28;20053;-68
2022/01/24 06:50:03;;;;;;;13.80;8.98;;;5.00;99.90;;;;;;5048695;28;20045;-67
2022/01/24 06:52:30;;;;;;;14.80;8.60;;;4.90;99.90;;;;;;5052713;28;20061;-67
2022/01/24 06:54:57;;;;;;;13.43;8.38;;;4.90;99.90;;;;;;5051588;28;20090;-67
2022/01/24 06:57:24;;;;;;;12.73;8.48;;;4.90;99.90;;;;;;5065320;28;20057;-69
2022/01/24 06:59:52;;;;;;;14.60;8.38;;;4.90;99.90;;;;;;5051166;28;20127;-68
2022/01/24 07:02:19;;;;;;;16.27;9.75;;;4.90;99.90;;;;;;5051138;28;20535;-68
2022/01/24 07:04:46;;;;;;;17.15;9.32;;;4.90;99.90;;;;;;5050605;28;20048;-69
2022/01/24 07:07:15;;;;;;;13.88;8.45;;;4.90;99.90;;;;;;5050412;28;20060;-68
2022/01/24 07:09:44;;;;;;;12.55;7.93;;;4.90;99.90;;;;;;5050914;28;20102;-68
2022/01/24 07:12:11;;;;;;;14.15;9.95;;;4.90;99.90;;;;;;5047957;28;20080;-68
2022/01/24 07:14:40;;;;;;;15.60;9.35;;;4.90;99.90;;;;;;5049935;28;20456;-67
2022/01/24 07:17:16;;;;;;;12.35;8.02;;;4.90;99.90;;;;;;5051995;28;20580;-69
2022/01/24 07:19:43;;;;;;;13.80;8.95;;;4.90;99.90;;;;;;5052237;28;20131;-68
2022/01/24 07:22:10;;;;;;;13.77;8.55;;;4.90;99.90;;;;;;5050118;28;20044;-68
2022/01/24 07:24:38;;;;;;;13.95;8.80;;;4.90;99.90;;;;;;5052042;28;20053;-68
2022/01/24 07:27:05;;;;;;;13.65;7.70;;;4.90;99.90;;;;;;5052780;28;20045;-67
2022/01/24 07:29:32;;;;;;;14.73;9.43;;;4.90;99.90;;;;;;5046755;28;20041;-68
2022/01/24 07:31:59;;;;;;;13.73;9.00;;;4.90;99.90;;;;;;5050366;28;20057;-68
2022/01/24 07:34:28;;;;;;;12.63;8.23;;;4.90;99.90;;;;;;5053065;28;20114;-68
2022/01/24 07:36:55;;;;;;;12.32;8.65;;;4.80;99.90;;;;;;5052668;28;20455;-68
2022/01/24 07:39:22;;;;;;;12.40;8.27;;;4.90;99.90;;;;;;5050703;28;20059;-69
2022/01/24 07:41:50;;;;;;;15.85;8.98;;;4.90;99.90;;;;;;5048498;28;20045;-69
2022/01/24 07:44:21;;;;;;;12.13;8.00;;;4.90;99.90;;;;;;5050688;28;20057;-69
2022/01/24 07:46:48;;;;;;;13.45;9.05;;;4.90;99.90;;;;;;5051570;28;20049;-69
2022/01/24 07:49:15;;;;;;;16.15;9.32;;;4.90;99.90;;;;;;5050083;28;20083;-69
2022/01/24 07:51:44;;;;;;;12.38;8.75;;;4.90;99.90;;;;;;5050802;28;20459;-68
2022/01/24 07:54:11;;;;;;;15.32;9.25;;;4.90;99.90;;;;;;5050515;28;20114;-68
2022/01/24 07:56:38;;;;;;;13.90;9.20;;;4.90;99.90;;;;;;5051721;28;20107;-68
2022/01/24 07:59:05;;;;;;;17.42;9.13;;;4.90;99.90;;;;;;5049597;28;20048;-68
2022/01/24 08:01:32;;;;;;;13.88;8.90;;;4.90;99.90;;;;;;5049920;28;20053;-69
2022/01/24 08:03:59;;;;;;;11.48;8.30;;;5.00;99.90;;;;;;5048293;28;20520;-68
2022/01/24 08:06:26;;;;;;;13.80;8.88;;;5.00;99.90;;;;;;5051383;28;20139;-69
2022/01/24 08:08:54;;;;;;;12.50;7.90;;;5.00;99.90;;;;;;5051302;28;20390;-68
2022/01/24 08:11:21;;;;;;;15.70;8.23;;;5.00;99.90;;;;;;5052280;28;20488;-69
2022/01/24 08:13:47;;;;;;;13.95;8.32;;;5.00;99.90;;;;;;5064765;28;20082;-69
2022/01/24 08:16:14;;;;;;;14.45;7.97;;;5.00;99.90;;;;;;5047410;28;20131;-68
2022/01/24 08:18:41;;;;;;;11.68;8.38;;;5.20;99.90;;;;;;5044037;28;20098;-68
2022/01/24 08:21:08;;;;;;;12.65;9.02;;;5.00;99.90;;;;;;5051963;28;20037;-69
2022/01/24 08:23:35;;;;;;;13.20;8.60;;;5.00;99.90;;;;;;5054921;28;20098;-68
2022/01/24 08:26:03;;;;;;;13.57;8.52;;;5.00;99.90;;;;;;5055096;28;20057;-68
2022/01/24 08:28:30;;;;;;;13.35;8.88;;;5.10;99.90;;;;;;5069074;28;20060;-69
2022/01/24 08:30:57;;;;;;;11.93;8.48;;;5.10;99.90;;;;;;5054024;28;20044;-69
2022/01/24 08:33:24;;;;;;;12.60;8.95;;;5.10;99.90;;;;;;5053352;28;20106;-69
2022/01/24 08:35:52;;;;;;;12.77;8.55;;;5.10;99.90;;;;;;5061422;28;20106;-68
2022/01/24 08:38:19;;;;;;;13.57;9.55;;;5.10;99.90;;;;;;5054678;28;20119;-68
2022/01/24 08:40:49;;;;;;;16.10;10.05;;;5.10;99.90;;;;;;5070564;28;20445;-68
2022/01/24 08:43:25;;;;;;;15.43;9.35;;;5.10;99.90;;;;;;5053448;28;20060;-68
2022/01/24 08:45:58;;;;;;;16.27;10.60;;;5.10;99.90;;;;;;5072569;28;20385;-68
2022/01/24 08:48:25;;;;;;;14.60;9.35;;;5.20;99.90;;;;;;5073395;28;20056;-68
2022/01/24 08:50:55;;;;;;;15.68;10.38;;;5.20;99.90;;;;;;5054892;28;20049;-69
2022/01/24 08:53:23;;;;;;;13.25;9.13;;;5.20;99.90;;;;;;5052527;28;20056;-69
2022/01/24 08:55:51;;;;;;;15.88;9.82;;;5.30;99.90;;;;;;5053670;28;20063;-69
2022/01/24 08:58:19;;;;;;;14.77;9.88;;;5.20;99.90;;;;;;5054661;28;20582;-68
2022/01/24 09:00:47;;;;;;;13.52;9.75;;;5.30;99.90;;;;;;5053027;28;20492;-69
2022/01/24 09:03:15;;;;;;;15.68;9.65;;;5.30;99.90;;;;;;5052583;28;20044;-68
2022/01/24 09:05:42;;;;;;;14.25;9.48;;;5.40;99.90;;;;;;5057911;28;20459;-68
2022/01/24 09:08:10;;;;;;;15.13;9.57;;;5.30;99.90;;;;;;5054167;28;20102;-68
2022/01/24 09:10:39;;;;;;;16.30;10.13;;;5.30;99.90;;;;;;5066226;28;20528;-68
2022/01/24 09:13:06;;;;;;;18.50;11.13;;;5.30;99.90;;;;;;5072190;28;20059;-68
2022/01/24 09:15:35;;;;;;;17.58;11.32;;;5.30;99.90;;;;;;5063449;28;20049;-68
2022/01/24 09:18:03;;;;;;;16.40;10.88;;;5.30;99.90;;;;;;5053146;28;20114;-68
2022/01/24 09:20:30;;;;;;;17.48;10.63;;;5.40;99.90;;;;;;5051980;28;20404;-68
2022/01/24 09:22:57;;;;;;;18.73;10.63;;;5.40;99.90;;;;;;5052971;28;20053;-68
2022/01/24 09:25:24;;;;;;;18.63;11.65;;;5.40;99.90;;;;;;5067817;28;20048;-68
2022/01/24 09:27:51;;;;;;;17.25;11.45;;;5.40;99.90;;;;;;5055864;28;20049;-69
2022/01/24 09:30:20;;;;;;;16.95;10.77;;;5.50;99.90;;;;;;5053706;28;20049;-68
2022/01/24 09:32:49;;;;;;;17.42;10.43;;;5.40;99.90;;;;;;5052180;28;20114;-68
2022/01/24 09:35:17;;;;;;;16.20;10.75;;;5.50;99.90;;;;;;5056449;28;20056;-68
2022/01/24 09:37:46;;;;;;;17.80;11.32;;;5.50;99.90;;;;;;5056882;28;20060;-68
2022/01/24 09:40:15;;;;;;;21.35;12.02;;;5.50;99.90;;;;;;5053643;28;20489;-69
2022/01/24 09:42:43;;;;;;;17.25;11.10;;;5.50;99.90;;;;;;5052216;28;20061;-69
2022/01/24 09:45:11;;;;;;;17.65;12.00;;;5.60;99.90;;;;;;5059577;28;20056;-68
2022/01/24 09:47:38;;;;;;;18.23;10.93;;;5.60;99.90;;;;;;5072460;28;20052;-69
2022/01/24 09:50:09;;;;;;;18.75;12.40;;;5.60;99.90;;;;;;5071922;28;20044;-69
2022/01/24 09:52:36;;;;;;;;;;;5.60;99.90;;;;;;5058295;28;20065;-69
2022/01/24 09:55:03;;;;;;;21.73;12.93;;;5.60;99.90;;;;;;5051574;28;20072;-68
2022/01/24 09:57:30;;;;;;;21.73;13.48;;;5.60;99.90;;;;;;5063714;28;20052;-68
2022/01/24 09:59:57;;;;;;;22.20;13.63;;;5.70;99.90;;;;;;5071889;28;20056;-69
2022/01/24 10:02:24;;;;;;;20.30;13.30;;;5.70;99.90;;;;;;5068087;28;20080;-69
2022/01/24 10:04:51;;;;;;;23.65;14.95;;;5.70;99.90;;;;;;5051426;28;20054;-68
2022/01/24 10:07:20;;;;;;;21.13;13.02;;;5.70;99.90;;;;;;5067356;28;20056;-67
2022/01/24 10:09:48;;;;;;;23.58;13.98;;;5.70;99.90;;;;;;5064090;28;20049;-69
2022/01/24 10:16:24;;;;;;;22.65;14.73;;;5.70;99.90;;;;;;5051841;28;20118;-68
2022/01/24 10:18:04;;;;;;;24.90;15.45;;;5.80;99.90;;;;;;5047839;28;20511;-68
2022/01/24 10:20:32;;;;;;;27.25;17.17;;;5.80;99.90;;;;;;5068580;28;20580;-69
2022/01/24 10:23:16;;;;;;;29.55;16.50;;;5.70;99.90;;;;;;5072323;28;20076;-68
2022/01/24 10:25:49;;;;;;;31.48;18.70;;;5.80;99.90;;;;;;5062480;28;20059;-68
2022/01/24 10:28:25;;;;;;;29.25;18.13;;;5.90;99.90;;;;;;5066106;28;20056;-68
2022/01/24 10:31:03;;;;;;;27.38;17.35;;;5.90;99.90;;;;;;5055366;28;20056;-69
2022/01/24 10:33:30;;;;;;;27.92;18.55;;;5.90;99.90;;;;;;5051094;28;20057;-69
2022/01/24 10:35:58;;;;;;;28.38;16.17;;;6.00;99.90;;;;;;5067337;28;20524;-67
2022/01/24 10:38:34;;;;;;;28.05;16.55;;;6.00;99.90;;;;;;5052194;28;20068;-68
2022/01/24 10:41:12;;;;;;;29.42;18.27;;;6.00;99.90;;;;;;5051377;28;20073;-69
2022/01/24 10:43:40;;;;;;;28.80;18.50;;;6.00;99.90;;;;;;5050347;28;20057;-68
2022/01/24 10:46:09;;;;;;;29.80;16.42;;;6.00;99.90;;;;;;5051262;28;20103;-69
2022/01/24 10:48:39;;;;;;;28.52;16.88;;;6.00;99.90;;;;;;5051406;28;20056;-68
2022/01/24 10:51:09;;;;;;;33.55;19.52;;;6.00;99.90;;;;;;5052215;28;20052;-68
2022/01/24 10:53:40;;;;;;;33.42;19.60;;;6.00;99.90;;;;;;5071510;28;20048;-68
2022/01/24 10:56:30;;;;;;;31.75;19.52;;;6.00;99.90;;;;;;5070880;28;20056;-68
2022/01/24 10:59:03;;;;;;;32.28;19.70;;;6.00;99.90;;;;;;5070602;28;20109;-69
2022/01/24 11:01:31;;;;;;;33.95;20.83;;;6.00;99.90;;;;;;5070529;28;20044;-67
2022/01/24 11:04:00;;;;;;;33.42;19.60;;;6.00;99.90;;;;;;5071502;28;20106;-69
2022/01/24 11:06:28;;;;;;;33.22;19.48;;;6.10;99.90;;;;;;5065863;28;20511;-68
2022/01/24 11:09:13;;;;;;;26.13;17.30;;;6.00;99.90;;;;;;5050866;28;20098;-68
2022/01/24 11:11:40;;;;;;;31.02;17.77;;;6.10;99.90;;;;;;5051976;28;20127;-69
2022/01/24 11:14:09;;;;;;;30.67;17.85;;;6.10;99.90;;;;;;5049527;28;20115;-68
2022/01/24 11:16:38;;;;;;;29.23;18.33;;;6.00;99.90;;;;;;5051823;28;20041;-69
2022/01/24 11:19:10;;;;;;;32.47;18.85;;;6.10;99.90;;;;;;5051039;28;20060;-68
2022/01/24 11:21:38;;;;;;;31.23;18.50;;;6.10;99.90;;;;;;5049879;28;20040;-68
2022/01/24 11:24:08;;;;;;;29.15;18.85;;;6.10;99.90;;;;;;5022439;28;20053;-68
2022/01/24 11:26:36;;;;;;;32.65;19.10;;;6.10;99.90;;;;;;5040423;28;20049;-69
2022/01/24 11:29:04;;;;;;;35.50;20.80;;;6.00;99.90;;;;;;5070808;28;20052;-68
2022/01/24 11:31:40;;;;;;;29.73;19.17;;;6.10;99.90;;;;;;5069120;28;20048;-68
2022/01/24 11:34:15;;;;;;;35.20;20.95;;;6.00;99.90;;;;;;5070588;28;20550;-68
2022/01/24 11:36:44;;;;;;;32.78;19.33;;;6.00;99.90;;;;;;5059976;28;20060;-68
2022/01/24 11:39:11;;;;;;;38.95;20.70;;;6.00;99.90;;;;;;5062534;28;20459;-69
2022/01/24 11:41:40;;;;;;;36.10;19.48;;;6.00;99.90;;;;;;5050115;28;20114;-68
2022/01/24 11:44:11;;;;;;;37.70;20.57;;;6.00;99.90;;;;;;5050482;28;20052;-69
2022/01/24 11:46:44;;;;;;;;;;;6.00;99.90;;;;;;5051009;28;20052;-69
2022/01/24 11:49:12;;;;;;;30.90;18.63;;;6.00;99.90;;;;;;5067891;28;19967;-69
2022/01/24 11:51:40;;;;;;;31.05;18.67;;;6.00;99.90;;;;;;5070646;28;20431;-69
2022/01/24 11:54:31;;;;;;;29.00;17.95;;;6.00;99.90;;;;;;5070219;28;20060;-68
2022/01/24 11:57:26;;;;;;;28.00;16.92;;;6.00;99.90;;;;;;5074481;28;20048;-69
2022/01/24 12:00:14;;;;;;;30.02;17.92;;;6.00;99.90;;;;;;5074403;28;20492;-69
2022/01/24 12:02:43;;;;;;;30.10;17.10;;;6.00;99.90;;;;;;5059619;28;20048;-67
2022/01/24 12:05:13;;;;;;;29.70;17.23;;;6.00;99.90;;;;;;5055423;28;20081;-68
2022/01/24 12:07:45;;;;;;;27.90;17.33;;;6.00;99.90;;;;;;5054578;28;20061;-69
2022/01/24 12:10:43;;;;;;;30.35;17.98;;;6.00;99.90;;;;;;5054885;28;20123;-69
2022/01/24 12:13:20;;;;;;;32.40;18.50;;;6.00;99.90;;;;;;5054106;28;20095;-68
2022/01/24 12:15:58;;;;;;;29.15;17.67;;;6.00;99.90;;;;;;5055383;28;20115;-69
2022/01/24 12:18:49;;;;;;;28.17;16.75;;;6.00;99.90;;;;;;5053779;28;20118;-69
2022/01/24 12:21:17;;;;;;;;;;;6.10;99.90;;;;;;5052519;28;20049;-69
2022/01/24 12:23:45;;;;;;;26.45;16.67;;;6.10;99.90;;;;;;5052855;28;20388;-68
2022/01/24 12:26:26;;;;;;;29.35;18.45;;;6.10;99.90;;;;;;5053873;28;20061;-69
2022/01/24 12:28:59;;;;;;;29.67;17.17;;;6.10;99.90;;;;;;5056256;28;20488;-70
2022/01/24 12:31:33;;;;;;;24.08;15.43;;;6.00;99.90;;;;;;5073395;28;20531;-69
2022/01/24 12:34:08;;;;;;;25.92;17.33;;;6.00;99.90;;;;;;5073547;28;20060;-68
2022/01/24 12:37:11;;;;;;;36.25;18.73;;;6.00;99.90;;;;;;5067153;28;20095;-68
2022/01/24 12:39:48;;;;;;;28.42;18.10;;;5.90;99.90;;;;;;5051015;28;20119;-69
2022/01/24 12:42:28;;;;;;;29.80;17.83;;;6.00;99.90;;;;;;5054131;28;20099;-69
2022/01/24 12:47:40;;;;;;;29.10;16.98;;;6.00;99.90;;;;;;5074520;28;20421;-68
2022/01/24 12:50:10;;;;;;;26.13;15.88;;;6.00;99.90;;;;;;5064499;28;20048;-68
2022/01/24 12:52:39;;;;;;;26.85;18.02;;;6.00;99.90;;;;;;5065031;28;20492;-68
2022/01/24 12:55:08;;;;;;;27.48;17.23;;;6.00;99.90;;;;;;5059475;28;20049;-68
2022/01/24 12:57:42;;;;;;;29.67;18.60;;;6.00;99.90;;;;;;5057611;28;20102;-68
2022/01/24 13:00:13;;;;;;;28.92;18.05;;;6.10;99.90;;;;;;5054379;28;20060;-68
2022/01/24 13:02:40;;;;;;;;;;;6.10;99.90;;;;;;5053776;28;20041;-69
2022/01/24 13:05:09;;;;;;;32.33;19.20;;;6.10;99.90;;;;;;5053873;28;19921;-69
2022/01/24 13:07:37;;;;;;;30.83;19.25;;;6.10;99.90;;;;;;5053278;28;20114;-69
2022/01/24 13:10:07;;;;;;;31.20;18.17;;;6.20;99.90;;;;;;5053089;28;20052;-69
2022/01/24 13:12:34;;;;;;;34.28;19.92;;;6.10;99.90;;;;;;5052717;28;20049;-68
2022/01/24 13:15:05;;;;;;;34.50;19.42;;;6.00;99.90;;;;;;5066754;28;20058;-68
2022/01/24 13:20:48;;;;;;;30.27;18.77;;;6.00;99.90;;;;;;5073731;28;20634;-67
2022/01/24 13:23:22;;;;;;;31.33;18.00;;;6.00;99.90;;;;;;5072359;28;20056;-68
2022/01/24 13:25:49;;;;;;;25.33;16.02;;;6.00;99.90;;;;;;5073109;28;20109;-68
2022/01/24 13:28:19;;;;;;;27.65;17.70;;;6.00;99.90;;;;;;5072147;28;20419;-68
2022/01/24 13:30:49;;;;;;;27.92;17.58;;;6.00;99.90;;;;;;5068526;28;20079;-68
2022/01/24 13:33:20;;;;;;;28.90;16.80;;;5.90;99.90;;;;;;5032250;28;20053;-68
2022/01/24 13:35:48;;;;;;;26.83;16.95;;;5.90;99.90;;;;;;5049138;28;20115;-68
2022/01/24 13:38:17;;;;;;;28.25;16.85;;;5.90;99.90;;;;;;5032235;28;20408;-68
2022/01/24 13:40:53;;;;;;;28.35;17.15;;;5.90;99.90;;;;;;5033354;28;20049;-69
2022/01/24 13:43:31;;;;;;;28.20;17.77;;;5.90;99.90;;;;;;5032672;28;20076;-68
2022/01/24 13:45:59;;;;;;;32.50;18.80;;;5.90;99.90;;;;;;5032364;28;20132;-68
2022/01/24 13:48:28;;;;;;;31.52;17.88;;;5.90;99.90;;;;;;5048355;28;20049;-69
2022/01/24 13:50:58;;;;;;;30.42;18.08;;;5.90;99.90;;;;;;5049125;28;20053;-68
2022/01/24 13:53:37;;;;;;;28.80;17.85;;;5.80;99.90;;;;;;5048632;28;20394;-68
2022/01/24 13:56:35;;;;;;;29.90;18.88;;;5.90;99.90;;;;;;5051048;28;20539;-68
2022/01/24 13:59:10;;;;;;;26.77;17.73;;;5.80;99.90;;;;;;5052368;28;20053;-68
2022/01/24 14:01:39;;;;;;;27.05;17.95;;;5.80;99.90;;;;;;5052561;28;20055;-67
2022/01/24 14:04:09;;;;;;;26.13;15.73;;;5.80;99.90;;;;;;5057683;28;20094;-67
2022/01/24 14:06:37;;;;;;;27.88;17.23;;;5.80;99.90;;;;;;5064587;28;20098;-68
2022/01/24 14:09:15;;;;;;;28.33;16.83;;;5.80;99.90;;;;;;5068494;28;20492;-68